Portage, IN (46368)

7:38 AM CDT on July 27, 2016 (GMT -0500)
Lake Dombey | | Change Station
Active Advisory: Air Quality Alert

Elev 640 ft 41.58 °N, 87.21 °W | Updated 1 second ago

Partly Cloudy
Partly Cloudy
79.6 °F
Feels Like 83 °F
N
0.0
Wind Variable Wind from North
Gusts 0.0 mph

Today
High -- | Low -- °F
--% Chance of Precip.
Yesterday
High -- | Low -- °F
Precip. -- in
Pressure 30.03 in
Visibility 10.0 miles
Clouds Few 25000 ft
Heat Index 83 °F
Dew Point 72 °F
Humidity 77%
Rainfall 0.00 in
Snow Depth Not available.
5:38 AM 8:10 PM
Last Quarter, 43% visible
METAR KGYY 271145Z 21006KT 10SM FEW250 22/21 A3003
Pressure 30.03 in
Visibility 10.0 miles
Clouds Few 25000 ft
Heat Index 83 °F
Dew Point 72 °F
Humidity 77%
Rainfall 0.00 in
Snow Depth Not available.
5:38 AM 8:10 PM
Last Quarter, 43% visible
METAR KGYY 271145Z 21006KT 10SM FEW250 22/21 A3003

10-Day Weather Forecast

Almanac

Astronomy

Jul. 27, 2016 Rise Set
Actual Time
Civil Twilight
Nautical Twilight
Astronomical Twilight
Moon
Length of Visible Light
Length of Day
Tomorrow will be .
, % of the Moon is Illuminated

Today's Extremes

State Highs State Lows

Community

WunderPhotos

Upload Photos

1,927,838 photos uploaded!

WunderBlog® & News

Nearby

Air Quality

  Air Quality AQ Index Pollutant
Not available.

Snow Depth

Station Depth Elevation

Earthquake Activity

City Distance Mag. Time & Date
Minimum magnitude displayed is 2.5.

Coastal Water Temperatures

Place Temperature

Stations

Nearby Weather Stations

Station Location Temp. Windchill Dew Point Humidity Wind Precip. Elev Updated Type
                   

Watches & Warnings

Air Quality Alert
Issued: 1:40 PM CDT Jul. 26, 2016 – National Weather Service

... Air quality alert in effect on Wednesday...

An air quality action day has been forecast for Northwest Indiana
for Wednesday.

Ozone levels are expected to be in the Orange or unhealthy for
sensitive groups range. For additional information... please visit
the idem smog watch web site at www.In.Gov/Apps/idem/smog/ or the
EPA airnow web site at www.Airnow.Gov and click on Indiana.


140 PM CDT Tue Jul 26 2016

... Air quality alert in effect on Wednesday...

An air quality action day has been forecast for Northwest Indiana
for Wednesday.

Ozone levels are expected to be in the Orange or unhealthy for
sensitive groups range. For additional information... please visit
the idem smog watch web site at www.In.Gov/Apps/idem/smog/ or the
EPA airnow web site at www.Airnow.Gov and click on Indiana.



140 PM CDT Tue Jul 26 2016

... Air quality alert in effect on Wednesday...

An air quality action day has been forecast for Northwest Indiana
for Wednesday.

Ozone levels are expected to be in the Orange or unhealthy for
sensitive groups range. For additional information... please visit
the idem smog watch web site at www.In.Gov/Apps/idem/smog/ or the
EPA airnow web site at www.Airnow.Gov and click on Indiana.